Upstream stations:
Downstream station:
SHEF ID: SNCO2 North Canadian River at Shawnee,
STATION TYPE:
STAGE RIV-FLOW BAT-LOAD
ft cfs volt
Ccp-Rev Ccp-Rev Ccp-Rev
(US/Central)
03/01 00:00 9.93 280 12.65
03/01 01:00 9.97 294 12.65
03/01 02:00 9.98 297 12.65
03/01 03:00 9.98 297 12.60
03/01 04:00 9.97 294 12.60
03/01 05:00 9.97 294 12.60
03/01 06:00 9.98 297 12.60
03/01 07:00 9.99 301 12.60
03/01 08:00 9.97 294 12.83
03/01 09:00 9.98 297 13.48
03/01 10:00 9.97 294 13.48
03/01 11:00 9.96 290 13.53
03/01 12:00 9.95 287 13.53
03/01 13:00 9.93 280 13.65
03/01 14:00 9.92 276 13.77
03/01 15:00 9.90 269 13.83
03/01 16:00 9.88 263 13.24
03/01 17:00 9.85 253 13.24
03/01 18:00 9.84 249 13.12
03/01 19:00 9.83 246 12.89
03/01 20:00 9.82 243 12.83
03/01 21:00 9.80 236 12.77
03/01 22:00 9.79 233 12.71
03/01 23:00 ---- ---- ----